createdAt,value
2022-11-17T00:01:08.601Z,23.80
2022-11-17T00:06:09.714Z,26.10
2022-11-17T00:11:11.079Z,25.10
2022-11-17T00:16:17.335Z,26.60
2022-11-17T00:21:18.833Z,24.60
2022-11-17T00:26:24.602Z,24.40
2022-11-17T00:31:48.526Z,17.40
2022-11-17T00:36:52.243Z,20.00
2022-11-17T00:41:53.476Z,20.80
2022-11-17T00:46:54.739Z,18.30
2022-11-17T00:51:57.229Z,18.40
2022-11-17T00:56:58.391Z,16.50
2022-11-17T01:01:59.686Z,16.60
2022-11-17T01:07:01.073Z,17.70
2022-11-17T01:12:02.421Z,18.80
2022-11-17T01:17:03.649Z,20.30
2022-11-17T01:22:05.009Z,18.80
2022-11-17T01:27:06.082Z,19.70
2022-11-17T01:32:07.237Z,20.00
2022-11-17T01:37:20.624Z,21.00
2022-11-17T01:42:24.298Z,21.00
2022-11-17T01:47:57.683Z,22.80
2022-11-17T01:53:04.939Z,21.70
2022-11-17T01:58:10.590Z,22.70
2022-11-17T02:03:12.542Z,22.90
2022-11-17T02:08:15.413Z,23.70
2022-11-17T02:13:16.930Z,21.50
2022-11-17T02:18:18.636Z,22.20
2022-11-17T02:23:47.967Z,24.60
2022-11-17T02:28:59.860Z,19.70
2022-11-17T02:34:24.298Z,18.50
2022-11-17T02:39:41.510Z,17.60
2022-11-17T02:44:52.117Z,17.40
2022-11-17T02:49:59.782Z,17.40
2022-11-17T03:00:10.438Z,16.50
2022-11-17T03:05:22.557Z,18.30
2022-11-17T03:10:32.461Z,19.00
2022-11-17T03:15:54.765Z,17.80
2022-11-17T03:21:09.735Z,18.90
2022-11-17T03:26:15.179Z,18.30
2022-11-17T03:31:18.624Z,18.10
2022-11-17T03:36:25.522Z,17.40
2022-11-17T03:41:31.049Z,17.70
2022-11-17T03:46:36.411Z,13.90
2022-11-17T03:51:37.779Z,14.20
2022-11-17T03:57:00.499Z,14.40
2022-11-17T04:02:01.969Z,13.90
2022-11-17T04:07:03.308Z,9.30
2022-11-17T04:12:23.450Z,9.00
2022-11-17T04:17:24.537Z,8.90
2022-11-17T04:22:25.609Z,8.70
2022-11-17T04:27:49.657Z,8.50
2022-11-17T04:32:50.730Z,9.40
2022-11-17T04:37:51.907Z,11.20
2022-11-17T04:42:53.075Z,11.00
2022-11-17T04:47:54.152Z,9.50
2022-11-17T04:52:55.197Z,9.50
2022-11-17T04:57:56.340Z,8.00
2022-11-17T05:02:57.509Z,7.50
2022-11-17T05:07:58.774Z,9.10
2022-11-17T05:13:18.869Z,11.10
2022-11-17T05:18:20.031Z,9.40
2022-11-17T05:23:39.725Z,8.60
2022-11-17T05:28:41.296Z,9.60
2022-11-17T05:33:48.193Z,8.80
2022-11-17T05:38:49.865Z,9.20
2022-11-17T05:43:51.637Z,9.10
2022-11-17T05:48:53.042Z,9.20
2022-11-17T05:53:54.168Z,8.10
2022-11-17T05:59:02.557Z,6.10
2022-11-17T06:04:06.850Z,6.40
2022-11-17T06:09:07.938Z,5.70
2022-11-17T06:14:09.044Z,6.10
2022-11-17T06:19:18.096Z,6.80
2022-11-17T06:24:19.717Z,4.40
2022-11-17T06:29:20.960Z,6.90
2022-11-17T06:34:22.068Z,5.60
2022-11-17T06:39:23.247Z,7.20
2022-11-17T06:44:24.320Z,6.50
2022-11-17T06:49:25.419Z,7.70
2022-11-17T06:54:26.790Z,8.80
2022-11-17T06:59:27.907Z,6.10
2022-11-17T07:04:29.007Z,5.40
2022-11-17T07:09:30.286Z,5.30
2022-11-17T07:14:31.408Z,5.40
2022-11-17T07:19:32.788Z,5.10
2022-11-17T07:24:34.009Z,6.90
2022-11-17T07:29:35.272Z,5.30
2022-11-17T07:34:36.429Z,7.20
2022-11-17T07:39:37.690Z,7.40
2022-11-17T07:44:38.859Z,6.30
2022-11-17T07:49:40.119Z,5.70
2022-11-17T07:54:41.445Z,5.60
2022-11-17T07:59:42.633Z,8.00
2022-11-17T08:04:43.804Z,65.70
2022-11-17T08:09:44.963Z,167.10
2022-11-17T08:14:46.941Z,13.30
2022-11-17T08:19:48.101Z,22.80
2022-11-17T08:24:49.368Z,7.10
2022-11-17T08:29:50.527Z,19.10
2022-11-17T08:34:51.689Z,11.30
2022-11-17T08:39:52.869Z,18.50
2022-11-17T08:44:54.118Z,14.60
2022-11-17T08:49:55.381Z,11.40
2022-11-17T08:54:57.290Z,7.10
2022-11-17T08:59:58.609Z,11.10
2022-11-17T09:04:59.772Z,8.90
2022-11-17T09:10:01.646Z,6.00
2022-11-17T09:15:04.546Z,10.70
2022-11-17T09:20:06.537Z,13.30
2022-11-17T09:25:13.189Z,11.30
2022-11-17T09:30:15.152Z,31.50
2022-11-17T09:35:17.694Z,411.10
2022-11-17T09:40:20.542Z,531.00
2022-11-17T09:45:30.996Z,75.00
2022-11-17T09:50:37.967Z,45.90
2022-11-17T09:55:40.351Z,17.10
2022-11-17T10:00:46.712Z,12.60
2022-11-17T10:05:48.721Z,7.60
2022-11-17T10:10:51.528Z,8.20
2022-11-17T10:16:02.926Z,21.50
2022-11-17T10:21:06.100Z,56.50
2022-11-17T10:26:12.816Z,14.90
2022-11-17T10:31:16.746Z,31.80
2022-11-17T10:36:30.905Z,388.30
2022-11-17T10:41:36.989Z,59.30
2022-11-17T10:47:23.316Z,126.30
2022-11-17T10:52:24.461Z,166.00
2022-11-17T10:57:26.759Z,83.80
2022-11-17T11:02:36.226Z,65.90
2022-11-17T11:07:38.871Z,76.20
2022-11-17T11:13:18.566Z,24.80
2022-11-17T11:18:20.644Z,30.90
2022-11-17T11:23:24.878Z,8.10
2022-11-17T11:28:35.253Z,8.50
2022-11-17T11:33:41.064Z,60.10
2022-11-17T11:39:20.486Z,37.30
2022-11-17T11:44:40.076Z,45.10
2022-11-17T11:49:50.243Z,33.80
2022-11-17T11:55:23.766Z,20.50
2022-11-17T12:00:24.951Z,9.60
2022-11-17T12:05:28.951Z,7.80
2022-11-17T12:10:33.593Z,14.40
2022-11-17T12:15:36.086Z,11.40
2022-11-17T12:20:50.868Z,13.60
2022-11-17T12:25:56.394Z,10.20
2022-11-17T12:31:05.058Z,10.20
2022-11-17T12:36:30.404Z,6.80
2022-11-17T12:41:54.884Z,19.60
2022-11-17T12:47:13.674Z,16.70
2022-11-17T12:52:29.274Z,14.60
2022-11-17T12:57:33.914Z,14.10
2022-11-17T13:03:08.253Z,24.70
2022-11-17T13:08:23.543Z,27.80
2022-11-17T13:13:24.803Z,20.20
2022-11-17T13:18:33.240Z,11.80
2022-11-17T13:23:34.517Z,13.90
2022-11-17T13:28:35.764Z,18.30
2022-11-17T13:33:40.171Z,24.80
2022-11-17T13:38:52.133Z,18.00
2022-11-17T13:43:55.120Z,17.20
2022-11-17T13:48:57.059Z,12.00
2022-11-17T13:54:17.325Z,11.80
2022-11-17T13:59:25.490Z,10.40
2022-11-17T14:04:26.972Z,9.60
2022-11-17T14:09:31.230Z,10.30
2022-11-17T14:14:38.430Z,136.20
2022-11-17T14:19:39.701Z,78.90
2022-11-17T14:24:40.854Z,45.50
2022-11-17T14:29:42.018Z,39.00
2022-11-17T14:34:43.182Z,39.90
2022-11-17T14:39:44.444Z,18.00
2022-11-17T14:44:45.703Z,14.90
2022-11-17T14:49:46.966Z,17.30
2022-11-17T14:54:48.124Z,13.00
2022-11-17T14:59:49.203Z,13.30
2022-11-17T15:04:51.555Z,15.10
2022-11-17T15:09:53.348Z,14.70
2022-11-17T15:14:56.916Z,12.30
2022-11-17T15:19:58.130Z,14.90
2022-11-17T15:24:59.501Z,21.20
2022-11-17T15:30:00.688Z,17.00
2022-11-17T15:35:01.918Z,15.20
2022-11-17T15:40:04.765Z,13.00
2022-11-17T15:45:09.606Z,14.90
2022-11-17T15:50:10.827Z,22.60
2022-11-17T15:55:11.919Z,22.70
2022-11-17T16:00:13.929Z,16.60
2022-11-17T16:05:15.229Z,115.20
2022-11-17T16:10:16.601Z,196.60
2022-11-17T16:15:17.696Z,585.70
2022-11-17T16:20:19.098Z,250.00
2022-11-17T16:25:20.402Z,38.80
2022-11-17T16:30:21.647Z,114.60
2022-11-17T16:35:22.804Z,28.20
2022-11-17T16:40:23.963Z,25.30
2022-11-17T16:45:25.129Z,33.20
2022-11-17T16:50:26.397Z,44.00
2022-11-17T16:55:27.549Z,25.20
2022-11-17T17:00:28.708Z,90.70
2022-11-17T17:05:29.972Z,584.60
2022-11-17T17:10:32.463Z,431.70
2022-11-17T17:15:33.834Z,387.10
2022-11-17T17:20:35.140Z,158.30
2022-11-17T17:25:36.255Z,341.30
2022-11-17T17:30:37.519Z,497.40
2022-11-17T17:35:38.679Z,104.60
2022-11-17T17:40:39.841Z,45.30
2022-11-17T17:45:40.998Z,16.50
2022-11-17T17:50:42.260Z,19.90
2022-11-17T17:55:43.423Z,21.90
2022-11-17T18:00:46.736Z,16.50
2022-11-17T18:05:47.998Z,23.40
2022-11-17T18:10:49.261Z,14.00
2022-11-17T18:15:50.518Z,13.90
2022-11-17T18:21:21.380Z,12.90
2022-11-17T18:26:25.727Z,15.50
2022-11-17T18:31:29.478Z,20.20
2022-11-17T18:36:31.621Z,13.00
2022-11-17T18:41:33.501Z,13.20
2022-11-17T18:46:34.657Z,218.10
2022-11-17T18:51:36.738Z,95.80
2022-11-17T18:56:38.197Z,155.80
2022-11-17T19:01:41.316Z,120.80
2022-11-17T19:06:42.607Z,676.80
2022-11-17T19:11:43.819Z,260.60
2022-11-17T19:16:45.388Z,260.60
2022-11-17T19:21:46.671Z,590.90
2022-11-17T19:26:47.834Z,418.60
2022-11-17T19:31:49.096Z,197.10
2022-11-17T19:36:50.358Z,189.40
2022-11-17T19:41:52.749Z,218.80
2022-11-17T19:46:53.906Z,82.50
2022-11-17T19:51:55.064Z,223.70
2022-11-17T19:56:56.639Z,65.10
2022-11-17T20:01:57.859Z,198.60
2022-11-17T20:06:59.313Z,56.90
2022-11-17T20:12:00.529Z,193.30
2022-11-17T20:17:01.692Z,163.50
2022-11-17T20:22:02.953Z,212.10
2022-11-17T20:27:04.131Z,133.60
2022-11-17T20:32:05.288Z,86.90
2022-11-17T20:37:06.430Z,90.40
2022-11-17T20:42:07.597Z,51.90
2022-11-17T20:47:08.854Z,45.00
2022-11-17T20:52:13.360Z,47.00
2022-11-17T20:57:14.771Z,32.10
2022-11-17T21:02:15.942Z,22.40
2022-11-17T21:07:17.156Z,22.60
2022-11-17T21:12:18.332Z,23.20
2022-11-17T21:17:38.254Z,50.80
2022-11-17T21:22:39.476Z,36.30
2022-11-17T21:27:40.621Z,117.40
2022-11-17T21:32:42.009Z,38.90
2022-11-17T21:37:43.091Z,33.20
2022-11-17T21:42:45.010Z,55.00
2022-11-17T21:47:46.537Z,50.10
2022-11-17T21:52:47.630Z,59.60
2022-11-17T21:57:51.570Z,40.70
2022-11-17T22:02:52.724Z,42.80
2022-11-17T22:07:53.871Z,25.10
2022-11-17T22:13:00.431Z,37.20
2022-11-17T22:18:01.804Z,45.80
2022-11-17T22:23:02.898Z,31.30
2022-11-17T22:28:04.121Z,31.30
2022-11-17T22:33:05.240Z,29.20
2022-11-17T22:38:06.343Z,28.60
2022-11-17T22:43:14.466Z,43.60
2022-11-17T22:48:17.683Z,67.40
2022-11-17T22:53:18.931Z,38.70
2022-11-17T22:58:20.418Z,33.90
2022-11-17T23:03:22.119Z,27.40
2022-11-17T23:08:23.439Z,37.90
2022-11-17T23:13:35.491Z,110.80
2022-11-17T23:18:36.718Z,83.60
2022-11-17T23:23:39.720Z,101.40
2022-11-17T23:28:42.442Z,87.40
2022-11-17T23:33:45.893Z,99.40
2022-11-17T23:38:49.038Z,200.40
2022-11-17T23:43:51.945Z,292.00
2022-11-17T23:48:53.833Z,159.10
2022-11-17T23:53:58.559Z,129.00
2022-11-17T23:59:00.338Z,61.30
